sensor_id;sensor_type;location;lat;lon;timestamp;temperature;humidity
25248;DHT22;13191;47.472;11.214;2023-02-08T00:01:39;-3.50;99.90
25248;DHT22;13191;47.472;11.214;2023-02-08T00:04:05;-3.80;99.90
25248;DHT22;13191;47.472;11.214;2023-02-08T00:06:31;-3.80;99.90
25248;DHT22;13191;47.472;11.214;2023-02-08T00:08:56;-3.90;99.90
25248;DHT22;13191;47.472;11.214;2023-02-08T00:11:22;-3.90;99.90
25248;DHT22;13191;47.472;11.214;2023-02-08T00:13:47;-3.90;99.90
25248;DHT22;13191;47.472;11.214;2023-02-08T00:16:13;-4.00;99.90
25248;DHT22;13191;47.472;11.214;2023-02-08T00:18:39;-4.00;99.90
25248;DHT22;13191;47.472;11.214;2023-02-08T00:21:08;-4.00;99.90
25248;DHT22;13191;47.472;11.214;2023-02-08T00:23:34;-4.10;99.90
25248;DHT22;13191;47.472;11.214;2023-02-08T00:26:00;-4.10;99.90
25248;DHT22;13191;47.472;11.214;2023-02-08T00:28:25;-4.10;99.90
25248;DHT22;13191;47.472;11.214;2023-02-08T00:30:51;-4.20;99.90
25248;DHT22;13191;47.472;11.214;2023-02-08T00:33:17;-4.30;99.90
25248;DHT22;13191;47.472;11.214;2023-02-08T00:35:43;-4.30;99.90
25248;DHT22;13191;47.472;11.214;2023-02-08T00:38:08;-4.40;99.90
25248;DHT22;13191;47.472;11.214;2023-02-08T00:40:34;-4.50;99.90
25248;DHT22;13191;47.472;11.214;2023-02-08T00:42:59;-4.50;99.90
25248;DHT22;13191;47.472;11.214;2023-02-08T00:45:25;-4.60;99.90
25248;DHT22;13191;47.472;11.214;2023-02-08T00:47:50;-4.60;99.90
25248;DHT22;13191;47.472;11.214;2023-02-08T00:50:16;-4.60;99.90
25248;DHT22;13191;47.472;11.214;2023-02-08T00:52:41;-4.70;99.90
25248;DHT22;13191;47.472;11.214;2023-02-08T00:55:07;-4.70;99.90
25248;DHT22;13191;47.472;11.214;2023-02-08T00:57:33;-4.70;99.90
25248;DHT22;13191;47.472;11.214;2023-02-08T00:59:58;-4.70;99.90
25248;DHT22;13191;47.472;11.214;2023-02-08T01:02:24;-4.80;99.90
25248;DHT22;13191;47.472;11.214;2023-02-08T01:04:50;-4.80;99.90
25248;DHT22;13191;47.472;11.214;2023-02-08T01:07:15;-4.90;99.90
25248;DHT22;13191;47.472;11.214;2023-02-08T01:09:41;-5.00;99.90
25248;DHT22;13191;47.472;11.214;2023-02-08T01:12:06;-5.00;99.90
25248;DHT22;13191;47.472;11.214;2023-02-08T01:16:58;-5.20;99.90
25248;DHT22;13191;47.472;11.214;2023-02-08T01:19:23;-5.20;99.90
25248;DHT22;13191;47.472;11.214;2023-02-08T01:21:49;-5.30;99.90
25248;DHT22;13191;47.472;11.214;2023-02-08T01:24:15;-5.40;99.90
25248;DHT22;13191;47.472;11.214;2023-02-08T01:26:40;-5.40;99.90
25248;DHT22;13191;47.472;11.214;2023-02-08T01:29:06;-5.50;99.90
25248;DHT22;13191;47.472;11.214;2023-02-08T01:31:33;-5.50;99.90
25248;DHT22;13191;47.472;11.214;2023-02-08T01:33:59;-5.60;99.90
25248;DHT22;13191;47.472;11.214;2023-02-08T01:36:25;-5.60;99.90
25248;DHT22;13191;47.472;11.214;2023-02-08T01:38:51;-5.60;99.90
25248;DHT22;13191;47.472;11.214;2023-02-08T01:41:18;-5.70;99.90
25248;DHT22;13191;47.472;11.214;2023-02-08T01:46:21;-5.90;99.90
25248;DHT22;13191;47.472;11.214;2023-02-08T01:48:47;-5.90;99.90
25248;DHT22;13191;47.472;11.214;2023-02-08T01:51:14;-6.00;99.90
25248;DHT22;13191;47.472;11.214;2023-02-08T01:53:41;-6.10;99.90
25248;DHT22;13191;47.472;11.214;2023-02-08T01:56:09;-6.10;99.90
25248;DHT22;13191;47.472;11.214;2023-02-08T01:58:37;-6.20;99.90
25248;DHT22;13191;47.472;11.214;2023-02-08T02:01:03;-6.20;99.90
25248;DHT22;13191;47.472;11.214;2023-02-08T02:03:29;-6.20;99.90
25248;DHT22;13191;47.472;11.214;2023-02-08T02:05:56;-6.20;99.90
25248;DHT22;13191;47.472;11.214;2023-02-08T02:08:25;-6.20;99.90
25248;DHT22;13191;47.472;11.214;2023-02-08T02:10:51;-6.30;99.90
25248;DHT22;13191;47.472;11.214;2023-02-08T02:13:18;-6.40;99.90
25248;DHT22;13191;47.472;11.214;2023-02-08T02:15:44;-6.40;99.90
25248;DHT22;13191;47.472;11.214;2023-02-08T02:18:10;-6.50;99.90
25248;DHT22;13191;47.472;11.214;2023-02-08T02:20:57;-6.50;99.90
25248;DHT22;13191;47.472;11.214;2023-02-08T02:23:34;-6.50;99.90
25248;DHT22;13191;47.472;11.214;2023-02-08T02:26:30;-6.60;99.90
25248;DHT22;13191;47.472;11.214;2023-02-08T02:31:31;-6.60;99.90
25248;DHT22;13191;47.472;11.214;2023-02-08T02:34:08;-6.70;99.90
25248;DHT22;13191;47.472;11.214;2023-02-08T02:36:43;-6.80;99.90
25248;DHT22;13191;47.472;11.214;2023-02-08T02:39:20;-6.90;99.90
25248;DHT22;13191;47.472;11.214;2023-02-08T02:44:49;-6.90;99.90
25248;DHT22;13191;47.472;11.214;2023-02-08T02:47:27;-7.00;99.90
25248;DHT22;13191;47.472;11.214;2023-02-08T02:49:56;-7.00;99.90
25248;DHT22;13191;47.472;11.214;2023-02-08T02:52:45;-7.20;99.90
25248;DHT22;13191;47.472;11.214;2023-02-08T02:55:14;-7.30;99.90
25248;DHT22;13191;47.472;11.214;2023-02-08T02:57:41;-7.30;99.90
25248;DHT22;13191;47.472;11.214;2023-02-08T03:00:08;-7.40;99.90
25248;DHT22;13191;47.472;11.214;2023-02-08T03:02:34;-7.40;99.90
25248;DHT22;13191;47.472;11.214;2023-02-08T03:05:00;-7.40;99.90
25248;DHT22;13191;47.472;11.214;2023-02-08T03:07:36;-7.60;99.90
25248;DHT22;13191;47.472;11.214;2023-02-08T03:12:38;-7.70;99.90
25248;DHT22;13191;47.472;11.214;2023-02-08T03:20:43;-7.90;99.90
25248;DHT22;13191;47.472;11.214;2023-02-08T03:30:50;-8.00;99.90
25248;DHT22;13191;47.472;11.214;2023-02-08T03:33:26;-8.00;99.90
25248;DHT22;13191;47.472;11.214;2023-02-08T03:35:54;-8.00;99.90
25248;DHT22;13191;47.472;11.214;2023-02-08T03:38:23;-8.00;99.90
25248;DHT22;13191;47.472;11.214;2023-02-08T03:40:50;-8.00;99.90
25248;DHT22;13191;47.472;11.214;2023-02-08T03:43:19;-8.10;99.90
25248;DHT22;13191;47.472;11.214;2023-02-08T03:45:59;-8.30;99.90
25248;DHT22;13191;47.472;11.214;2023-02-08T03:48:26;-8.30;99.90
25248;DHT22;13191;47.472;11.214;2023-02-08T03:50:53;-8.40;99.90
25248;DHT22;13191;47.472;11.214;2023-02-08T03:53:21;-8.30;99.90
25248;DHT22;13191;47.472;11.214;2023-02-08T03:55:48;-8.30;99.90
25248;DHT22;13191;47.472;11.214;2023-02-08T03:58:24;-8.50;99.90
25248;DHT22;13191;47.472;11.214;2023-02-08T04:00:53;-8.50;99.90
25248;DHT22;13191;47.472;11.214;2023-02-08T04:03:26;-8.50;99.90
25248;DHT22;13191;47.472;11.214;2023-02-08T04:05:53;-8.50;99.90
25248;DHT22;13191;47.472;11.214;2023-02-08T04:08:19;-8.40;99.90
25248;DHT22;13191;47.472;11.214;2023-02-08T04:10:46;-8.40;99.90
25248;DHT22;13191;47.472;11.214;2023-02-08T04:13:11;-8.40;99.90
25248;DHT22;13191;47.472;11.214;2023-02-08T04:15:37;-8.70;99.90
25248;DHT22;13191;47.472;11.214;2023-02-08T04:18:02;-8.70;99.90
25248;DHT22;13191;47.472;11.214;2023-02-08T04:20:28;-8.70;99.90
25248;DHT22;13191;47.472;11.214;2023-02-08T04:22:54;-8.70;99.90
25248;DHT22;13191;47.472;11.214;2023-02-08T04:25:19;-8.80;99.90
25248;DHT22;13191;47.472;11.214;2023-02-08T04:27:45;-8.80;99.90
25248;DHT22;13191;47.472;11.214;2023-02-08T04:30:10;-8.70;99.90
25248;DHT22;13191;47.472;11.214;2023-02-08T04:32:36;-8.80;99.90
25248;DHT22;13191;47.472;11.214;2023-02-08T04:35:01;-8.80;99.90
25248;DHT22;13191;47.472;11.214;2023-02-08T04:37:27;-9.00;99.90
25248;DHT22;13191;47.472;11.214;2023-02-08T04:39:53;-9.00;99.90
25248;DHT22;13191;47.472;11.214;2023-02-08T04:42:18;-9.10;99.90
25248;DHT22;13191;47.472;11.214;2023-02-08T04:44:44;-9.00;99.90
25248;DHT22;13191;47.472;11.214;2023-02-08T04:47:09;-9.00;99.90
25248;DHT22;13191;47.472;11.214;2023-02-08T04:49:35;-9.10;99.90
25248;DHT22;13191;47.472;11.214;2023-02-08T04:52:00;-9.10;99.90
25248;DHT22;13191;47.472;11.214;2023-02-08T04:54:26;-9.10;99.90
25248;DHT22;13191;47.472;11.214;2023-02-08T04:56:51;-9.20;99.90
25248;DHT22;13191;47.472;11.214;2023-02-08T04:59:17;-9.20;99.90
25248;DHT22;13191;47.472;11.214;2023-02-08T05:01:43;-9.10;99.90
25248;DHT22;13191;47.472;11.214;2023-02-08T05:04:08;-9.20;99.90
25248;DHT22;13191;47.472;11.214;2023-02-08T05:06:34;-9.30;99.90
25248;DHT22;13191;47.472;11.214;2023-02-08T05:08:59;-9.30;99.90
25248;DHT22;13191;47.472;11.214;2023-02-08T05:11:25;-9.30;99.90
25248;DHT22;13191;47.472;11.214;2023-02-08T05:13:50;-9.30;99.90
25248;DHT22;13191;47.472;11.214;2023-02-08T05:16:16;-9.30;99.90
25248;DHT22;13191;47.472;11.214;2023-02-08T05:18:42;-9.30;99.90
25248;DHT22;13191;47.472;11.214;2023-02-08T05:21:07;-9.20;99.90
25248;DHT22;13191;47.472;11.214;2023-02-08T05:23:33;-9.20;99.90
25248;DHT22;13191;47.472;11.214;2023-02-08T05:25:59;-9.10;99.90
25248;DHT22;13191;47.472;11.214;2023-02-08T05:28:24;-9.10;99.90
25248;DHT22;13191;47.472;11.214;2023-02-08T05:30:50;-9.10;99.90
25248;DHT22;13191;47.472;11.214;2023-02-08T05:33:16;-9.10;99.90
25248;DHT22;13191;47.472;11.214;2023-02-08T05:35:42;-9.00;99.90
25248;DHT22;13191;47.472;11.214;2023-02-08T05:38:08;-9.00;99.90
25248;DHT22;13191;47.472;11.214;2023-02-08T05:40:34;-9.00;99.90
25248;DHT22;13191;47.472;11.214;2023-02-08T05:43:00;-9.00;99.90
25248;DHT22;13191;47.472;11.214;2023-02-08T05:45:25;-9.00;99.90
25248;DHT22;13191;47.472;11.214;2023-02-08T05:47:51;-9.00;99.90
25248;DHT22;13191;47.472;11.214;2023-02-08T05:50:16;-9.00;99.90
25248;DHT22;13191;47.472;11.214;2023-02-08T05:52:42;-9.20;99.90
25248;DHT22;13191;47.472;11.214;2023-02-08T05:55:07;-9.30;99.90
25248;DHT22;13191;47.472;11.214;2023-02-08T05:57:33;-9.30;99.90
25248;DHT22;13191;47.472;11.214;2023-02-08T05:59:58;-9.30;99.90
25248;DHT22;13191;47.472;11.214;2023-02-08T06:02:24;-9.30;99.90
25248;DHT22;13191;47.472;11.214;2023-02-08T06:04:49;-9.30;99.90
25248;DHT22;13191;47.472;11.214;2023-02-08T06:07:15;-9.30;99.90
25248;DHT22;13191;47.472;11.214;2023-02-08T06:09:40;-9.30;99.90
25248;DHT22;13191;47.472;11.214;2023-02-08T06:12:06;-9.30;99.90
25248;DHT22;13191;47.472;11.214;2023-02-08T06:14:31;-9.30;99.90
25248;DHT22;13191;47.472;11.214;2023-02-08T06:16:57;-9.30;99.90
25248;DHT22;13191;47.472;11.214;2023-02-08T06:19:22;-9.30;99.90
25248;DHT22;13191;47.472;11.214;2023-02-08T06:21:48;-9.30;99.90
25248;DHT22;13191;47.472;11.214;2023-02-08T06:24:13;-9.30;99.90
25248;DHT22;13191;47.472;11.214;2023-02-08T06:26:41;-9.30;99.90
25248;DHT22;13191;47.472;11.214;2023-02-08T06:29:06;-9.30;99.90
25248;DHT22;13191;47.472;11.214;2023-02-08T06:31:31;-9.30;99.90
25248;DHT22;13191;47.472;11.214;2023-02-08T06:33:57;-9.30;99.90
25248;DHT22;13191;47.472;11.214;2023-02-08T06:36:22;-9.30;99.90
25248;DHT22;13191;47.472;11.214;2023-02-08T06:38:48;-9.30;99.90
25248;DHT22;13191;47.472;11.214;2023-02-08T06:41:13;-9.30;99.90
25248;DHT22;13191;47.472;11.214;2023-02-08T06:43:39;-9.40;99.90
25248;DHT22;13191;47.472;11.214;2023-02-08T06:46:05;-9.40;99.90
25248;DHT22;13191;47.472;11.214;2023-02-08T06:48:33;-9.50;99.90
25248;DHT22;13191;47.472;11.214;2023-02-08T06:50:58;-9.50;99.90
25248;DHT22;13191;47.472;11.214;2023-02-08T06:53:24;-9.50;99.90
25248;DHT22;13191;47.472;11.214;2023-02-08T06:55:50;-9.50;99.90
25248;DHT22;13191;47.472;11.214;2023-02-08T06:58:15;-9.50;99.90
25248;DHT22;13191;47.472;11.214;2023-02-08T07:00:41;-9.50;99.90
25248;DHT22;13191;47.472;11.214;2023-02-08T07:03:07;-9.50;99.90
25248;DHT22;13191;47.472;11.214;2023-02-08T07:05:33;-9.50;99.90
25248;DHT22;13191;47.472;11.214;2023-02-08T07:07:59;-9.50;99.90
25248;DHT22;13191;47.472;11.214;2023-02-08T07:10:24;-9.60;99.90
25248;DHT22;13191;47.472;11.214;2023-02-08T07:12:50;-9.60;99.90
25248;DHT22;13191;47.472;11.214;2023-02-08T07:15:15;-9.70;99.90
25248;DHT22;13191;47.472;11.214;2023-02-08T07:17:41;-9.70;99.90
25248;DHT22;13191;47.472;11.214;2023-02-08T07:20:07;-9.60;99.90
25248;DHT22;13191;47.472;11.214;2023-02-08T07:22:32;-9.60;99.90
25248;DHT22;13191;47.472;11.214;2023-02-08T07:24:58;-9.60;99.90
25248;DHT22;13191;47.472;11.214;2023-02-08T07:27:23;-9.60;99.90
25248;DHT22;13191;47.472;11.214;2023-02-08T07:29:49;-9.60;99.90
25248;DHT22;13191;47.472;11.214;2023-02-08T07:32:14;-9.60;99.90
25248;DHT22;13191;47.472;11.214;2023-02-08T07:34:40;-9.50;99.90
25248;DHT22;13191;47.472;11.214;2023-02-08T07:37:06;-9.50;99.90
25248;DHT22;13191;47.472;11.214;2023-02-08T07:39:31;-9.40;99.90
25248;DHT22;13191;47.472;11.214;2023-02-08T07:41:57;-9.40;99.90
25248;DHT22;13191;47.472;11.214;2023-02-08T07:44:23;-9.40;99.90
25248;DHT22;13191;47.472;11.214;2023-02-08T07:46:49;-9.30;99.90
25248;DHT22;13191;47.472;11.214;2023-02-08T07:49:14;-9.30;99.90
25248;DHT22;13191;47.472;11.214;2023-02-08T07:51:39;-9.30;99.90
25248;DHT22;13191;47.472;11.214;2023-02-08T07:54:05;-9.30;99.90
25248;DHT22;13191;47.472;11.214;2023-02-08T07:56:30;-9.30;99.90
25248;DHT22;13191;47.472;11.214;2023-02-08T07:58:56;-9.20;99.90
25248;DHT22;13191;47.472;11.214;2023-02-08T08:01:21;-9.20;99.90
25248;DHT22;13191;47.472;11.214;2023-02-08T08:03:47;-9.10;99.90
25248;DHT22;13191;47.472;11.214;2023-02-08T08:06:13;-9.00;99.90
25248;DHT22;13191;47.472;11.214;2023-02-08T08:08:38;-8.90;99.90
25248;DHT22;13191;47.472;11.214;2023-02-08T08:11:04;-8.80;99.90
25248;DHT22;13191;47.472;11.214;2023-02-08T08:13:29;-8.70;99.90
25248;DHT22;13191;47.472;11.214;2023-02-08T08:15:55;-8.60;99.90
25248;DHT22;13191;47.472;11.214;2023-02-08T08:18:20;-8.50;99.90
25248;DHT22;13191;47.472;11.214;2023-02-08T08:20:46;-8.40;99.90
25248;DHT22;13191;47.472;11.214;2023-02-08T08:23:11;-8.30;99.90
25248;DHT22;13191;47.472;11.214;2023-02-08T08:25:37;-8.20;99.90
25248;DHT22;13191;47.472;11.214;2023-02-08T08:28:02;-8.00;99.90
25248;DHT22;13191;47.472;11.214;2023-02-08T08:30:28;-8.00;99.90
25248;DHT22;13191;47.472;11.214;2023-02-08T08:32:53;-7.90;99.90
25248;DHT22;13191;47.472;11.214;2023-02-08T08:35:19;-7.80;99.90
25248;DHT22;13191;47.472;11.214;2023-02-08T08:37:44;-7.80;99.90
25248;DHT22;13191;47.472;11.214;2023-02-08T08:40:10;-7.60;99.90
25248;DHT22;13191;47.472;11.214;2023-02-08T08:42:36;-7.50;99.90
25248;DHT22;13191;47.472;11.214;2023-02-08T08:45:04;-7.40;99.90
25248;DHT22;13191;47.472;11.214;2023-02-08T08:47:29;-7.20;99.90
25248;DHT22;13191;47.472;11.214;2023-02-08T08:49:55;-7.00;99.90
25248;DHT22;13191;47.472;11.214;2023-02-08T08:52:20;-6.80;99.90
25248;DHT22;13191;47.472;11.214;2023-02-08T08:54:46;-6.70;99.90
25248;DHT22;13191;47.472;11.214;2023-02-08T08:57:11;-6.50;99.90
25248;DHT22;13191;47.472;11.214;2023-02-08T08:59:37;-6.40;99.90
25248;DHT22;13191;47.472;11.214;2023-02-08T09:02:02;-6.30;99.90
25248;DHT22;13191;47.472;11.214;2023-02-08T09:04:28;-6.20;99.90
25248;DHT22;13191;47.472;11.214;2023-02-08T09:06:53;-6.00;99.90
25248;DHT22;13191;47.472;11.214;2023-02-08T09:09:19;-5.90;99.90
25248;DHT22;13191;47.472;11.214;2023-02-08T09:11:45;-5.80;99.90
25248;DHT22;13191;47.472;11.214;2023-02-08T09:14:11;-5.60;99.90
25248;DHT22;13191;47.472;11.214;2023-02-08T09:16:36;-5.50;99.90
25248;DHT22;13191;47.472;11.214;2023-02-08T09:19:03;-5.40;99.90
25248;DHT22;13191;47.472;11.214;2023-02-08T09:21:28;-5.30;99.90
25248;DHT22;13191;47.472;11.214;2023-02-08T09:23:54;-5.20;99.90
25248;DHT22;13191;47.472;11.214;2023-02-08T09:26:19;-5.00;99.90
25248;DHT22;13191;47.472;11.214;2023-02-08T09:28:45;-4.80;99.90
25248;DHT22;13191;47.472;11.214;2023-02-08T09:31:11;-4.70;99.90
25248;DHT22;13191;47.472;11.214;2023-02-08T09:33:37;-4.60;99.90
25248;DHT22;13191;47.472;11.214;2023-02-08T09:36:03;-4.50;99.90
25248;DHT22;13191;47.472;11.214;2023-02-08T09:38:29;-4.40;99.90
25248;DHT22;13191;47.472;11.214;2023-02-08T09:43:28;-4.10;99.90
25248;DHT22;13191;47.472;11.214;2023-02-08T09:45:58;-4.10;99.90
25248;DHT22;13191;47.472;11.214;2023-02-08T09:48:27;-3.90;99.90
25248;DHT22;13191;47.472;11.214;2023-02-08T09:53:20;-3.60;99.90
25248;DHT22;13191;47.472;11.214;2023-02-08T09:55:50;-3.50;99.90
25248;DHT22;13191;47.472;11.214;2023-02-08T09:58:22;-3.40;99.90
25248;DHT22;13191;47.472;11.214;2023-02-08T10:00:48;-3.20;99.90
25248;DHT22;13191;47.472;11.214;2023-02-08T10:03:20;-3.10;99.90
25248;DHT22;13191;47.472;11.214;2023-02-08T10:05:46;-3.00;99.90
25248;DHT22;13191;47.472;11.214;2023-02-08T10:08:12;-3.00;99.90
25248;DHT22;13191;47.472;11.214;2023-02-08T10:10:43;-2.80;99.90
25248;DHT22;13191;47.472;11.214;2023-02-08T10:21:02;-2.20;99.90
25248;DHT22;13191;47.472;11.214;2023-02-08T10:23:44;-2.00;99.90
25248;DHT22;13191;47.472;11.214;2023-02-08T10:31:23;-1.60;99.90
25248;DHT22;13191;47.472;11.214;2023-02-08T10:33:54;-1.50;99.90
25248;DHT22;13191;47.472;11.214;2023-02-08T10:36:26;-1.40;99.90
25248;DHT22;13191;47.472;11.214;2023-02-08T10:38:53;-1.30;99.90
25248;DHT22;13191;47.472;11.214;2023-02-08T10:41:21;-1.20;99.90
25248;DHT22;13191;47.472;11.214;2023-02-08T10:43:51;-1.00;99.90
25248;DHT22;13191;47.472;11.214;2023-02-08T10:51:32;-0.70;99.90
25248;DHT22;13191;47.472;11.214;2023-02-08T10:53:58;-0.60;99.90
25248;DHT22;13191;47.472;11.214;2023-02-08T10:58:56;-0.40;99.90
25248;DHT22;13191;47.472;11.214;2023-02-08T11:01:22;-0.30;99.90
25248;DHT22;13191;47.472;11.214;2023-02-08T11:04:05;-0.20;99.90
25248;DHT22;13191;47.472;11.214;2023-02-08T11:06:31;-0.20;99.90
25248;DHT22;13191;47.472;11.214;2023-02-08T11:08:57;-0.10;99.90
25248;DHT22;13191;47.472;11.214;2023-02-08T11:11:23;0.00;99.90
25248;DHT22;13191;47.472;11.214;2023-02-08T11:13:51;0.10;99.90
25248;DHT22;13191;47.472;11.214;2023-02-08T11:16:20;0.20;99.90
25248;DHT22;13191;47.472;11.214;2023-02-08T11:18:47;0.30;99.90
25248;DHT22;13191;47.472;11.214;2023-02-08T11:21:20;0.60;99.90
25248;DHT22;13191;47.472;11.214;2023-02-08T11:23:48;0.60;99.90
25248;DHT22;13191;47.472;11.214;2023-02-08T11:26:21;0.70;99.90
25248;DHT22;13191;47.472;11.214;2023-02-08T11:31:23;0.90;99.90
25248;DHT22;13191;47.472;11.214;2023-02-08T11:33:56;1.10;99.90
25248;DHT22;13191;47.472;11.214;2023-02-08T11:36:22;1.30;99.90
25248;DHT22;13191;47.472;11.214;2023-02-08T11:38:48;1.30;99.90
25248;DHT22;13191;47.472;11.214;2023-02-08T11:41:15;1.40;99.90
25248;DHT22;13191;47.472;11.214;2023-02-08T11:43:41;1.50;99.90
25248;DHT22;13191;47.472;11.214;2023-02-08T11:46:07;1.60;99.90
25248;DHT22;13191;47.472;11.214;2023-02-08T11:48:38;1.60;99.90
25248;DHT22;13191;47.472;11.214;2023-02-08T11:51:05;1.70;99.90
25248;DHT22;13191;47.472;11.214;2023-02-08T11:53:32;1.70;99.90
25248;DHT22;13191;47.472;11.214;2023-02-08T11:56:05;1.90;99.90
25248;DHT22;13191;47.472;11.214;2023-02-08T11:58:31;2.00;99.90
25248;DHT22;13191;47.472;11.214;2023-02-08T12:01:02;2.10;99.90
25248;DHT22;13191;47.472;11.214;2023-02-08T12:03:29;2.20;99.90
25248;DHT22;13191;47.472;11.214;2023-02-08T12:08:32;2.30;99.90
25248;DHT22;13191;47.472;11.214;2023-02-08T12:16:11;2.50;99.90
25248;DHT22;13191;47.472;11.214;2023-02-08T12:21:27;2.70;99.90
25248;DHT22;13191;47.472;11.214;2023-02-08T12:23:51;2.70;99.90
25248;DHT22;13191;47.472;11.214;2023-02-08T12:26:38;2.80;99.90
25248;DHT22;13191;47.472;11.214;2023-02-08T12:31:56;3.20;99.90
25248;DHT22;13191;47.472;11.214;2023-02-08T12:37:17;3.60;99.90
25248;DHT22;13191;47.472;11.214;2023-02-08T12:43:06;3.80;99.90
25248;DHT22;13191;47.472;11.214;2023-02-08T12:53:40;4.20;99.90
25248;DHT22;13191;47.472;11.214;2023-02-08T12:56:26;4.30;99.90
25248;DHT22;13191;47.472;11.214;2023-02-08T12:58:54;4.50;99.90
25248;DHT22;13191;47.472;11.214;2023-02-08T13:01:25;4.60;99.90
25248;DHT22;13191;47.472;11.214;2023-02-08T13:06:22;4.80;99.90
25248;DHT22;13191;47.472;11.214;2023-02-08T13:08:51;5.00;99.90
25248;DHT22;13191;47.472;11.214;2023-02-08T13:16:57;5.30;99.90
25248;DHT22;13191;47.472;11.214;2023-02-08T13:21:49;5.60;99.90
25248;DHT22;13191;47.472;11.214;2023-02-08T13:26:47;6.00;99.90
25248;DHT22;13191;47.472;11.214;2023-02-08T13:29:14;6.10;99.90
25248;DHT22;13191;47.472;11.214;2023-02-08T13:31:41;6.20;99.90
25248;DHT22;13191;47.472;11.214;2023-02-08T13:34:13;6.40;99.90
25248;DHT22;13191;47.472;11.214;2023-02-08T13:36:48;6.70;99.90
25248;DHT22;13191;47.472;11.214;2023-02-08T13:39:28;6.90;99.90
25248;DHT22;13191;47.472;11.214;2023-02-08T13:41:55;7.00;99.90
25248;DHT22;13191;47.472;11.214;2023-02-08T13:44:25;7.20;99.90
25248;DHT22;13191;47.472;11.214;2023-02-08T13:46:52;7.40;99.90
25248;DHT22;13191;47.472;11.214;2023-02-08T13:52:03;7.70;99.90
25248;DHT22;13191;47.472;11.214;2023-02-08T13:54:29;7.90;99.90
25248;DHT22;13191;47.472;11.214;2023-02-08T13:56:54;7.90;99.90
25248;DHT22;13191;47.472;11.214;2023-02-08T14:02:09;8.20;99.90
25248;DHT22;13191;47.472;11.214;2023-02-08T14:04:32;8.20;99.90
25248;DHT22;13191;47.472;11.214;2023-02-08T14:07:00;8.30;99.90
25248;DHT22;13191;47.472;11.214;2023-02-08T14:14:35;8.60;99.90
25248;DHT22;13191;47.472;11.214;2023-02-08T14:19:29;8.90;99.90
25248;DHT22;13191;47.472;11.214;2023-02-08T14:22:03;8.90;99.90
25248;DHT22;13191;47.472;11.214;2023-02-08T14:24:30;8.80;99.90
25248;DHT22;13191;47.472;11.214;2023-02-08T14:29:30;9.20;99.90
25248;DHT22;13191;47.472;11.214;2023-02-08T14:31:57;9.40;99.90
25248;DHT22;13191;47.472;11.214;2023-02-08T14:34:27;9.40;99.90
25248;DHT22;13191;47.472;11.214;2023-02-08T14:37:38;9.40;99.90
25248;DHT22;13191;47.472;11.214;2023-02-08T14:39:45;9.40;99.90
25248;DHT22;13191;47.472;11.214;2023-02-08T14:42:16;9.70;99.90
25248;DHT22;13191;47.472;11.214;2023-02-08T14:45:00;9.80;99.90
25248;DHT22;13191;47.472;11.214;2023-02-08T14:49:54;10.10;99.90
25248;DHT22;13191;47.472;11.214;2023-02-08T14:52:23;10.30;99.90
25248;DHT22;13191;47.472;11.214;2023-02-08T14:54:53;10.30;98.80
25248;DHT22;13191;47.472;11.214;2023-02-08T14:59:46;10.20;98.00
25248;DHT22;13191;47.472;11.214;2023-02-08T15:02:14;9.90;97.70
25248;DHT22;13191;47.472;11.214;2023-02-08T15:04:44;9.60;97.20
25248;DHT22;13191;47.472;11.214;2023-02-08T15:09:36;9.10;97.10
25248;DHT22;13191;47.472;11.214;2023-02-08T15:14:29;8.80;97.60
25248;DHT22;13191;47.472;11.214;2023-02-08T15:16:55;8.70;97.50
25248;DHT22;13191;47.472;11.214;2023-02-08T15:19:31;8.30;97.40
25248;DHT22;13191;47.472;11.214;2023-02-08T15:22:15;8.00;97.80
25248;DHT22;13191;47.472;11.214;2023-02-08T15:24:47;7.90;98.10
25248;DHT22;13191;47.472;11.214;2023-02-08T15:27:20;8.10;98.40
25248;DHT22;13191;47.472;11.214;2023-02-08T15:29:46;8.00;98.30
25248;DHT22;13191;47.472;11.214;2023-02-08T15:32:12;7.50;98.70
25248;DHT22;13191;47.472;11.214;2023-02-08T15:34:40;7.20;98.60
25248;DHT22;13191;47.472;11.214;2023-02-08T15:37:11;6.80;99.30
25248;DHT22;13191;47.472;11.214;2023-02-08T15:39:39;6.20;99.60
25248;DHT22;13191;47.472;11.214;2023-02-08T15:42:13;5.50;99.90
25248;DHT22;13191;47.472;11.214;2023-02-08T15:44:40;4.90;99.90
25248;DHT22;13191;47.472;11.214;2023-02-08T15:47:08;4.70;99.90
25248;DHT22;13191;47.472;11.214;2023-02-08T15:49:40;4.60;99.90
25248;DHT22;13191;47.472;11.214;2023-02-08T15:52:06;4.30;99.90
25248;DHT22;13191;47.472;11.214;2023-02-08T15:54:32;3.90;99.90
25248;DHT22;13191;47.472;11.214;2023-02-08T15:57:08;3.70;99.90
25248;DHT22;13191;47.472;11.214;2023-02-08T15:59:42;3.70;99.90
25248;DHT22;13191;47.472;11.214;2023-02-08T16:04:42;3.60;99.90
25248;DHT22;13191;47.472;11.214;2023-02-08T16:07:12;3.50;99.90
25248;DHT22;13191;47.472;11.214;2023-02-08T16:09:44;3.30;99.90
25248;DHT22;13191;47.472;11.214;2023-02-08T16:12:12;3.00;99.90
25248;DHT22;13191;47.472;11.214;2023-02-08T16:14:42;2.90;99.90
25248;DHT22;13191;47.472;11.214;2023-02-08T16:17:25;2.70;99.90
25248;DHT22;13191;47.472;11.214;2023-02-08T16:19:52;2.60;99.90
25248;DHT22;13191;47.472;11.214;2023-02-08T16:22:22;2.30;99.90
25248;DHT22;13191;47.472;11.214;2023-02-08T16:24:50;2.10;99.90
25248;DHT22;13191;47.472;11.214;2023-02-08T16:29:41;1.90;99.90
25248;DHT22;13191;47.472;11.214;2023-02-08T16:32:18;1.80;99.90
25248;DHT22;13191;47.472;11.214;2023-02-08T16:34:45;1.70;99.90
25248;DHT22;13191;47.472;11.214;2023-02-08T16:37:22;1.70;99.90
25248;DHT22;13191;47.472;11.214;2023-02-08T16:42:22;1.60;99.90
25248;DHT22;13191;47.472;11.214;2023-02-08T16:45:09;1.50;99.90
25248;DHT22;13191;47.472;11.214;2023-02-08T16:47:55;1.40;99.90
25248;DHT22;13191;47.472;11.214;2023-02-08T16:50:22;1.30;99.90
25248;DHT22;13191;47.472;11.214;2023-02-08T16:52:54;1.40;99.90
25248;DHT22;13191;47.472;11.214;2023-02-08T16:55:24;1.40;99.90
25248;DHT22;13191;47.472;11.214;2023-02-08T16:57:51;1.30;99.90
25248;DHT22;13191;47.472;11.214;2023-02-08T17:00:19;1.20;99.90
25248;DHT22;13191;47.472;11.214;2023-02-08T17:02:44;1.10;99.90
25248;DHT22;13191;47.472;11.214;2023-02-08T17:05:10;1.00;99.90
25248;DHT22;13191;47.472;11.214;2023-02-08T17:07:36;0.80;99.90
25248;DHT22;13191;47.472;11.214;2023-02-08T17:10:05;0.70;99.90
25248;DHT22;13191;47.472;11.214;2023-02-08T17:12:31;0.60;99.90
25248;DHT22;13191;47.472;11.214;2023-02-08T17:14:56;0.40;99.90
25248;DHT22;13191;47.472;11.214;2023-02-08T17:17:22;0.40;99.90
25248;DHT22;13191;47.472;11.214;2023-02-08T17:19:47;0.20;99.90
25248;DHT22;13191;47.472;11.214;2023-02-08T17:22:13;0.10;99.90
25248;DHT22;13191;47.472;11.214;2023-02-08T17:24:38;0.00;99.90
25248;DHT22;13191;47.472;11.214;2023-02-08T17:27:04;-0.10;99.90
25248;DHT22;13191;47.472;11.214;2023-02-08T17:29:29;0.00;99.90
25248;DHT22;13191;47.472;11.214;2023-02-08T17:31:55;-0.10;99.90